Detall de PIREP

Printer-friendly versionPDF version

[2013/01/26 09:30:00]
Flight IATA:CT2214
Pilot Number:012
Company ICAO:CAT
Aircraft Type:A320/E
PAX:150
Departing Airport: LFMP
Destination Airport: LFRS
Alternate Airport:LFPO
Online: VATSIM
Route:ORBIL/N0350F180 G36 GAI G39 SECHE UN863 MANAK
Flight Level:F280
No Slew and time accel
No pause
Crash detect
Detect pilot in Cockpit between each 30 and 45 minutes
09:30 Zero fuel Weight: 129710 Lbs, Fuel Weight: 17526 Lbs
09:30 VATSIM:LFMP 260900Z 08006KT 050V120 9999 FEW010 OVC030 04/03 Q1010 NOSIG
09:30 VATSIM:LFRS 260900Z 30010KT CAVOK 07/05 Q1013 NOSIG
09:31 VOICE CATALONIAN
09:33 Parking Brakes off
09:37 Take-off
09:37 Take off Weight: 146492 Lbs
09:37 Wind: 079º @ 006 Knots Heading: 330º
09:37 POS N42º 45´ 14´´ E002º 51´ 42´´
09:37 Flaps:3 at 179 Knots
09:37 Gear Up: 180 Knots
09:37 Flaps:2 at 193 Knots
09:37 Flaps:1 at 199 Knots
09:37 Flaps:0 at 207 Knots
09:49 TOC
09:49 Fuel Weight: 13465 Lb
09:52 Wind:286º@024 Knots Heading: 302º Ground Speed: 431 Knots Altitude 27952 ft
10:07 Wind:313º@035 Knots Heading: 332º Ground Speed: 419 Knots Altitude 28018 ft
10:12 TOD
10:12 Fuel Weight: 10799 Lb
10:22 Wind:338º@048 Knots Heading: 323º Ground Speed: 263 Knots Altitude 12522 ft
10:37 Wind:315º@009 Knots Heading: 354º Ground Speed: 201 Knots Altitude 1991 ft
10:37 Flaps:1 at 206 Knots
10:37 Gear Down: 190 Knots
10:38 Flaps:3 at 190 Knots
10:38 Flaps:4 at 175 Knots
10:38 Flaps:5 at 159 Knots
10:41 TouchDown:Rate -188 ft/min Speed: 133 Knots
10:41 Flaps:0 at 31 Knots
10:41 VATSIM:LFRS 261030Z 31008KT 280V340 CAVOK 08/05 Q1015 NOSIG
10:41 Land
10:41 Wind:312º@008 Knots
10:41 Heading: 026º
10:41 Flight Duration: 01:04
10:41 Landing Weight: 137993 Lbs
10:41 POS N47º 09´ 11´´ W001º 36´ 38´´
10:43 Parking brakes on
10:43 Block to Block Duration: 01:10
10:43 Final Fuel: 8117 Lbls
10:43 Spent Fuel: 9409 Lbls
10:43 Flight Length: 342 NM
10:43 TOD Land Length: 113 NM

Exportar CSV

Powered by Drupal - Modified by Danger4k